createdAt,value
2024-01-11T00:01:04.797Z,27.02
2024-01-11T00:03:33.148Z,30.40
2024-01-11T00:06:05.312Z,24.85
2024-01-11T00:08:33.811Z,24.00
2024-01-11T00:11:02.174Z,21.77
2024-01-11T00:13:30.562Z,21.73
2024-01-11T00:15:58.896Z,23.30
2024-01-11T00:18:27.415Z,27.48
2024-01-11T00:20:55.895Z,25.35
2024-01-11T00:23:25.634Z,25.45
2024-01-11T00:25:54.253Z,24.10
2024-01-11T00:28:22.649Z,26.88
2024-01-11T00:30:51.004Z,25.35
2024-01-11T00:33:19.475Z,26.58
2024-01-11T00:35:47.914Z,21.92
2024-01-11T00:38:16.318Z,21.27
2024-01-11T00:40:46.022Z,21.73
2024-01-11T00:43:14.346Z,24.45
2024-01-11T00:45:42.699Z,21.77
2024-01-11T00:48:11.173Z,24.40
2024-01-11T00:50:39.744Z,31.00
2024-01-11T00:53:09.517Z,23.05
2024-01-11T00:55:37.896Z,32.78
2024-01-11T00:58:07.605Z,18.30
2024-01-11T01:00:36.058Z,18.63
2024-01-11T01:03:04.475Z,29.58
2024-01-11T01:05:32.997Z,23.40
2024-01-11T01:08:01.565Z,26.15
2024-01-11T01:10:29.912Z,25.88
2024-01-11T01:12:58.235Z,25.55
2024-01-11T01:15:28.057Z,31.15
2024-01-11T01:17:56.565Z,21.23
2024-01-11T01:20:25.076Z,23.38
2024-01-11T01:22:53.445Z,18.13
2024-01-11T01:25:21.890Z,19.45
2024-01-11T01:27:50.420Z,21.10
2024-01-11T01:30:18.958Z,17.63
2024-01-11T01:32:48.914Z,27.38
2024-01-11T01:35:17.595Z,22.25
2024-01-11T01:37:46.148Z,19.45
2024-01-11T01:40:14.559Z,17.55
2024-01-11T01:42:45.516Z,20.67
2024-01-11T01:45:14.038Z,21.95
2024-01-11T01:47:43.255Z,19.75
2024-01-11T01:50:13.923Z,22.52
2024-01-11T01:52:43.310Z,21.77
2024-01-11T01:55:12.786Z,23.50
2024-01-11T01:57:42.942Z,14.82
2024-01-11T02:00:11.794Z,27.08
2024-01-11T02:02:39.804Z,28.38
2024-01-11T02:05:08.878Z,23.95
2024-01-11T02:07:38.698Z,21.55
2024-01-11T02:10:08.039Z,25.92
2024-01-11T02:12:38.006Z,22.30
2024-01-11T02:15:06.836Z,26.02
2024-01-11T02:17:35.459Z,20.10
2024-01-11T02:20:04.745Z,23.38
2024-01-11T02:22:35.303Z,15.95
2024-01-11T02:25:05.025Z,15.23
2024-01-11T02:27:33.430Z,23.55
2024-01-11T02:30:01.739Z,19.73
2024-01-11T02:32:30.160Z,17.63
2024-01-11T02:34:58.671Z,21.27
2024-01-11T02:37:27.240Z,22.23
2024-01-11T02:39:55.693Z,22.73
2024-01-11T02:42:25.370Z,13.57
2024-01-11T02:44:53.710Z,24.27
2024-01-11T02:47:22.060Z,21.92
2024-01-11T02:49:50.425Z,20.52
2024-01-11T02:52:18.739Z,17.45
2024-01-11T02:54:47.077Z,21.88
2024-01-11T02:57:15.388Z,23.55
2024-01-11T02:59:45.910Z,22.48
2024-01-11T03:02:14.284Z,20.15
2024-01-11T03:04:42.676Z,22.90
2024-01-11T03:07:10.999Z,27.80
2024-01-11T03:09:39.418Z,27.75
2024-01-11T03:12:08.625Z,23.33
2024-01-11T03:14:37.040Z,20.80
2024-01-11T03:17:07.001Z,21.10
2024-01-11T03:19:35.372Z,21.55
2024-01-11T03:22:07.291Z,24.20
2024-01-11T03:24:35.664Z,23.98
2024-01-11T03:27:04.006Z,29.40
2024-01-11T03:29:32.729Z,24.23
2024-01-11T03:32:01.106Z,22.40
2024-01-11T03:34:30.949Z,26.20
2024-01-11T03:36:59.299Z,23.08
2024-01-11T03:39:28.116Z,25.90
2024-01-11T03:41:56.446Z,27.35
2024-01-11T03:44:25.395Z,24.48
2024-01-11T03:46:53.753Z,22.65
2024-01-11T03:49:22.166Z,24.83
2024-01-11T03:51:51.893Z,22.67
2024-01-11T03:54:20.283Z,19.58
2024-01-11T03:56:49.284Z,18.88
2024-01-11T03:59:17.927Z,18.63
2024-01-11T04:01:46.297Z,20.63
2024-01-11T04:04:14.615Z,23.58
2024-01-11T04:06:43.032Z,21.35
2024-01-11T04:09:12.754Z,17.27
2024-01-11T04:11:41.219Z,19.75
2024-01-11T04:14:09.659Z,23.63
2024-01-11T04:16:42.547Z,19.88
2024-01-11T04:19:11.092Z,25.42
2024-01-11T04:21:40.503Z,16.20
2024-01-11T04:24:09.263Z,20.52
2024-01-11T04:26:39.009Z,19.25
2024-01-11T04:29:07.424Z,24.35
2024-01-11T04:31:35.779Z,16.75
2024-01-11T04:34:04.236Z,16.92
2024-01-11T04:36:32.606Z,14.20
2024-01-11T04:39:00.984Z,19.98
2024-01-11T04:41:29.402Z,22.60
2024-01-11T04:43:59.148Z,23.08
2024-01-11T04:46:27.554Z,20.25
2024-01-11T04:48:56.114Z,23.85
2024-01-11T04:51:24.475Z,24.20
2024-01-11T04:53:52.957Z,17.25
2024-01-11T04:56:21.459Z,24.73
2024-01-11T04:58:50.061Z,19.65
2024-01-11T05:01:20.221Z,24.60
2024-01-11T05:03:49.199Z,25.55
2024-01-11T05:06:18.513Z,27.15
2024-01-11T05:08:47.137Z,20.85
2024-01-11T05:11:19.542Z,25.35
2024-01-11T05:13:49.402Z,24.05
2024-01-11T05:16:23.637Z,22.77
2024-01-11T05:18:52.328Z,23.52
2024-01-11T05:21:20.791Z,20.75
2024-01-11T05:23:49.749Z,19.35
2024-01-11T05:26:19.096Z,22.60
2024-01-11T05:28:47.547Z,24.63
2024-01-11T05:31:17.564Z,18.83
2024-01-11T05:33:48.868Z,23.05
2024-01-11T05:36:17.734Z,21.13
2024-01-11T05:38:46.117Z,23.33
2024-01-11T05:41:14.508Z,17.13
2024-01-11T05:43:43.768Z,21.85
2024-01-11T05:46:12.152Z,16.90
2024-01-11T05:48:40.651Z,21.65
2024-01-11T05:51:10.921Z,21.92
2024-01-11T05:53:39.346Z,19.50
2024-01-11T05:56:10.750Z,19.17
2024-01-11T05:58:39.870Z,19.38
2024-01-11T06:01:08.513Z,15.93
2024-01-11T06:03:37.789Z,20.92
2024-01-11T06:06:06.846Z,19.98
2024-01-11T06:08:36.713Z,23.83
2024-01-11T06:11:05.807Z,28.23
2024-01-11T06:13:34.250Z,20.30
2024-01-11T06:16:02.612Z,17.85
2024-01-11T06:18:31.750Z,17.80
2024-01-11T06:21:00.325Z,25.77
2024-01-11T06:23:29.123Z,20.02
2024-01-11T06:25:58.972Z,20.55
2024-01-11T06:28:27.357Z,24.00
2024-01-11T06:30:55.790Z,20.55
2024-01-11T06:33:24.195Z,23.10
2024-01-11T06:35:52.904Z,22.50
2024-01-11T06:38:21.318Z,23.02
2024-01-11T06:40:49.754Z,24.83
2024-01-11T06:43:19.492Z,19.95
2024-01-11T06:45:47.834Z,23.27
2024-01-11T06:48:16.320Z,21.98
2024-01-11T06:50:45.012Z,29.48
2024-01-11T06:53:13.553Z,26.80
2024-01-11T06:55:42.354Z,24.95
2024-01-11T06:58:10.698Z,24.85
2024-01-11T07:00:44.640Z,27.98
2024-01-11T07:03:13.365Z,23.73
2024-01-11T07:05:41.869Z,20.92
2024-01-11T07:08:10.302Z,20.25
2024-01-11T07:10:38.781Z,20.50
2024-01-11T07:13:07.990Z,20.05
2024-01-11T07:15:36.368Z,20.45
2024-01-11T07:18:06.595Z,21.23
2024-01-11T07:20:35.224Z,20.17
2024-01-11T07:23:03.655Z,22.17
2024-01-11T07:25:33.033Z,24.50
2024-01-11T07:28:01.352Z,21.70
2024-01-11T07:30:29.764Z,25.17
2024-01-11T07:32:58.521Z,20.25
2024-01-11T07:35:28.748Z,23.45
2024-01-11T07:37:57.833Z,23.23
2024-01-11T07:40:26.571Z,24.52
2024-01-11T07:42:55.274Z,25.45
2024-01-11T07:45:23.812Z,18.73
2024-01-11T07:47:52.259Z,25.38
2024-01-11T07:50:20.753Z,24.48
2024-01-11T07:52:50.739Z,20.98
2024-01-11T07:55:19.351Z,15.30
2024-01-11T07:57:47.915Z,22.48
2024-01-11T08:00:16.607Z,24.88
2024-01-11T08:02:45.076Z,16.38
2024-01-11T08:05:13.604Z,18.70
2024-01-11T08:07:43.195Z,21.15
2024-01-11T08:10:13.134Z,25.75
2024-01-11T08:12:41.569Z,16.95
2024-01-11T08:15:13.664Z,15.98
2024-01-11T08:17:43.164Z,15.77
2024-01-11T08:20:13.503Z,16.85
2024-01-11T08:22:42.270Z,15.07
2024-01-11T08:25:10.902Z,12.93
2024-01-11T08:27:40.885Z,14.95
2024-01-11T08:30:09.817Z,16.77
2024-01-11T08:32:40.949Z,21.42
2024-01-11T08:35:11.098Z,18.88
2024-01-11T08:37:40.327Z,15.73
2024-01-11T08:40:10.628Z,22.52
2024-01-11T08:42:39.259Z,14.27
2024-01-11T08:45:09.946Z,17.02
2024-01-11T08:47:39.874Z,16.25
2024-01-11T08:50:09.158Z,19.50
2024-01-11T08:52:39.308Z,25.17
2024-01-11T08:55:08.604Z,29.05
2024-01-11T08:57:38.342Z,21.77
2024-01-11T09:00:08.051Z,25.80
2024-01-11T09:02:38.181Z,32.00
2024-01-11T09:05:09.329Z,30.92
2024-01-11T09:07:38.643Z,30.08
2024-01-11T09:10:09.527Z,29.55
2024-01-11T09:12:38.044Z,33.20
2024-01-11T09:15:06.925Z,25.33
2024-01-11T09:17:35.479Z,31.25
2024-01-11T09:20:05.506Z,32.33
2024-01-11T09:22:33.829Z,29.05
2024-01-11T09:25:02.206Z,27.42
2024-01-11T09:27:30.609Z,32.67
2024-01-11T09:29:59.367Z,28.27
2024-01-11T09:32:27.881Z,26.08
2024-01-11T09:34:56.251Z,30.13
2024-01-11T09:37:25.947Z,30.33
2024-01-11T09:39:54.382Z,26.73
2024-01-11T09:42:22.758Z,27.95
2024-01-11T09:44:51.347Z,27.92
2024-01-11T09:47:20.098Z,27.42
2024-01-11T09:49:51.952Z,30.45
2024-01-11T09:52:23.006Z,28.77
2024-01-11T09:54:52.781Z,39.47
2024-01-11T09:57:27.002Z,26.77
2024-01-11T09:59:57.807Z,31.30
2024-01-11T10:02:27.754Z,31.42
2024-01-11T10:04:56.456Z,26.52
2024-01-11T10:07:25.984Z,27.70
2024-01-11T10:09:55.952Z,23.63
2024-01-11T10:12:26.571Z,23.75
2024-01-11T10:14:55.258Z,29.45
2024-01-11T10:17:25.688Z,21.92
2024-01-11T10:19:56.835Z,27.48
2024-01-11T10:22:27.242Z,23.30
2024-01-11T10:25:10.946Z,23.75
2024-01-11T10:27:39.357Z,27.23
2024-01-11T10:30:09.002Z,25.30
2024-01-11T10:32:37.646Z,25.75
2024-01-11T10:35:06.563Z,27.02
2024-01-11T10:37:35.467Z,29.23
2024-01-11T10:40:10.753Z,26.27
2024-01-11T10:42:42.700Z,26.65
2024-01-11T10:45:13.609Z,31.55
2024-01-11T10:47:43.505Z,25.77
2024-01-11T10:50:12.182Z,25.42
2024-01-11T10:52:51.209Z,30.85
2024-01-11T10:55:21.814Z,34.83
2024-01-11T10:57:50.818Z,28.92
2024-01-11T11:00:19.654Z,35.03
2024-01-11T11:02:49.027Z,32.42
2024-01-11T11:05:18.521Z,35.35
2024-01-11T11:07:47.265Z,36.47
2024-01-11T11:10:16.494Z,31.95
2024-01-11T11:12:46.665Z,39.35
2024-01-11T11:15:15.553Z,27.73
2024-01-11T11:17:44.976Z,30.50
2024-01-11T11:20:14.730Z,31.80
2024-01-11T11:22:43.948Z,41.30
2024-01-11T11:25:12.535Z,36.83
2024-01-11T11:27:40.894Z,26.25
2024-01-11T11:30:12.046Z,34.60
2024-01-11T11:32:41.847Z,35.03
2024-01-11T11:35:10.517Z,28.13
2024-01-11T11:37:39.798Z,27.23
2024-01-11T11:40:08.846Z,28.65
2024-01-11T11:42:37.566Z,29.95
2024-01-11T11:45:06.290Z,31.40
2024-01-11T11:47:40.029Z,32.88
2024-01-11T11:50:10.471Z,33.28
2024-01-11T11:52:39.871Z,27.50
2024-01-11T11:55:09.401Z,33.00
2024-01-11T11:57:38.207Z,32.47
2024-01-11T12:00:07.329Z,27.08
2024-01-11T12:02:37.493Z,28.88
2024-01-11T12:05:07.754Z,27.95
2024-01-11T12:07:36.518Z,26.13
2024-01-11T12:10:04.991Z,30.75
2024-01-11T12:12:33.442Z,28.48
2024-01-11T12:15:01.772Z,36.47
2024-01-11T12:17:30.259Z,33.75
2024-01-11T12:19:58.702Z,34.35
2024-01-11T12:22:28.412Z,33.50
2024-01-11T12:24:57.036Z,28.40
2024-01-11T12:27:25.377Z,29.13
2024-01-11T12:29:58.856Z,28.25
2024-01-11T12:32:28.802Z,27.80
2024-01-11T12:34:57.481Z,34.55
2024-01-11T12:37:25.986Z,31.65
2024-01-11T12:40:00.898Z,34.83
2024-01-11T12:42:29.752Z,25.50
2024-01-11T12:44:59.608Z,32.65
2024-01-11T12:47:28.602Z,29.13
2024-01-11T12:49:57.394Z,33.85
2024-01-11T12:52:28.526Z,40.55
2024-01-11T12:54:57.817Z,30.92
2024-01-11T12:57:28.060Z,33.17
2024-01-11T12:59:56.929Z,27.80
2024-01-11T13:02:25.494Z,31.67
2024-01-11T13:04:54.078Z,28.08
2024-01-11T13:07:24.346Z,35.20
2024-01-11T13:09:52.856Z,27.05
2024-01-11T13:12:22.170Z,29.38
2024-01-11T13:14:54.156Z,39.65
2024-01-11T13:17:22.614Z,32.42
2024-01-11T13:19:51.414Z,38.80
2024-01-11T13:22:19.766Z,34.88
2024-01-11T13:24:48.130Z,35.58
2024-01-11T13:27:16.532Z,32.22
2024-01-11T13:29:44.913Z,32.42
2024-01-11T13:32:14.759Z,31.77
2024-01-11T13:34:43.835Z,42.63
2024-01-11T13:37:12.315Z,35.25
2024-01-11T13:39:40.722Z,28.52
2024-01-11T13:42:10.788Z,33.60
2024-01-11T13:44:39.452Z,35.20
2024-01-11T13:47:08.014Z,36.17
2024-01-11T13:49:37.877Z,33.67
2024-01-11T13:52:07.396Z,31.30
2024-01-11T13:54:35.791Z,32.25
2024-01-11T13:57:04.360Z,28.98
2024-01-11T13:59:33.958Z,35.70
2024-01-11T14:02:03.294Z,30.55
2024-01-11T14:04:31.741Z,32.42
2024-01-11T14:07:01.708Z,32.53
2024-01-11T14:09:30.145Z,38.67
2024-01-11T14:11:58.551Z,28.73
2024-01-11T14:14:27.080Z,44.53
2024-01-11T14:16:55.887Z,32.65
2024-01-11T14:19:24.470Z,41.40
2024-01-11T14:21:52.978Z,31.80
2024-01-11T14:24:26.789Z,35.75
2024-01-11T14:27:01.382Z,33.72
2024-01-11T14:29:30.351Z,27.08
2024-01-11T14:31:58.795Z,28.48
2024-01-11T14:34:28.797Z,35.35
2024-01-11T14:36:57.662Z,44.00
2024-01-11T14:39:27.838Z,31.42
2024-01-11T14:41:56.412Z,36.65
2024-01-11T14:44:24.820Z,38.85
2024-01-11T14:46:53.244Z,40.10
2024-01-11T14:49:22.229Z,38.85
2024-01-11T14:51:50.736Z,37.17
2024-01-11T14:54:20.884Z,33.35
2024-01-11T14:56:50.680Z,36.10
2024-01-11T14:59:19.231Z,30.00
2024-01-11T15:01:49.908Z,32.50
2024-01-11T15:04:18.683Z,34.72
2024-01-11T15:06:47.162Z,33.53
2024-01-11T15:09:16.314Z,37.67
2024-01-11T15:11:44.908Z,40.47
2024-01-11T15:14:14.929Z,33.03
2024-01-11T15:16:45.591Z,36.40
2024-01-11T15:19:14.156Z,37.20
2024-01-11T15:21:47.597Z,40.38
2024-01-11T15:24:20.157Z,35.13
2024-01-11T15:26:49.897Z,37.85
2024-01-11T15:29:20.326Z,33.53
2024-01-11T15:31:50.567Z,35.83
2024-01-11T15:34:19.825Z,30.73
2024-01-11T15:36:48.719Z,32.33
2024-01-11T15:39:25.593Z,40.50
2024-01-11T15:41:58.291Z,35.63
2024-01-11T15:44:29.942Z,40.65
2024-01-11T15:46:58.927Z,38.97
2024-01-11T15:49:27.961Z,32.83
2024-01-11T15:51:56.816Z,31.63
2024-01-11T15:54:25.184Z,32.95
2024-01-11T15:56:53.785Z,34.72
2024-01-11T15:59:23.800Z,35.08
2024-01-11T16:02:03.042Z,42.20
2024-01-11T16:04:35.047Z,43.30
2024-01-11T16:07:04.062Z,27.85
2024-01-11T16:09:32.674Z,37.83
2024-01-11T16:12:04.764Z,32.85
2024-01-11T16:14:34.891Z,35.80
2024-01-11T16:17:04.857Z,30.98
2024-01-11T16:19:35.053Z,37.80
2024-01-11T16:22:04.356Z,34.65
2024-01-11T16:24:32.879Z,35.22
2024-01-11T16:27:01.294Z,38.97
2024-01-11T16:29:29.762Z,39.60
2024-01-11T16:31:59.604Z,34.28
2024-01-11T16:34:30.105Z,44.55
2024-01-11T16:36:59.023Z,32.70
2024-01-11T16:39:27.420Z,37.97
2024-01-11T16:41:55.912Z,39.67
2024-01-11T16:44:25.448Z,37.40
2024-01-11T16:46:54.811Z,42.95
2024-01-11T16:49:24.481Z,40.85
2024-01-11T16:51:54.313Z,37.22
2024-01-11T16:54:22.813Z,32.78
2024-01-11T16:56:52.603Z,40.35
2024-01-11T16:59:21.239Z,36.75
2024-01-11T17:01:49.873Z,33.88
2024-01-11T17:04:18.372Z,37.08
2024-01-11T17:06:46.798Z,36.85
2024-01-11T17:09:16.905Z,35.03
2024-01-11T17:11:45.353Z,32.58
2024-01-11T17:14:13.784Z,34.08
2024-01-11T17:16:42.216Z,40.97
2024-01-11T17:19:10.584Z,34.78
2024-01-11T17:21:39.023Z,35.25
2024-01-11T17:24:07.900Z,33.13
2024-01-11T17:26:37.788Z,36.75
2024-01-11T17:29:06.395Z,34.58
2024-01-11T17:31:34.802Z,35.45
2024-01-11T17:34:03.306Z,40.40
2024-01-11T17:36:31.858Z,38.20
2024-01-11T17:39:01.532Z,40.33
2024-01-11T17:41:30.731Z,41.08
2024-01-11T17:44:00.662Z,39.00
2024-01-11T17:46:29.738Z,39.25
2024-01-11T17:48:58.299Z,38.40
2024-01-11T17:51:27.163Z,40.50
2024-01-11T17:53:55.561Z,47.28
2024-01-11T17:56:24.481Z,36.70
2024-01-11T17:58:53.182Z,40.60
2024-01-11T18:01:23.723Z,41.00
2024-01-11T18:03:52.184Z,40.65
2024-01-11T18:06:20.878Z,54.80
2024-01-11T18:08:49.830Z,30.85
2024-01-11T18:11:19.526Z,39.78
2024-01-11T18:13:48.004Z,45.22
2024-01-11T18:16:16.389Z,38.53
2024-01-11T18:18:47.894Z,37.38
2024-01-11T18:21:17.192Z,40.88
2024-01-11T18:23:45.939Z,37.08
2024-01-11T18:26:14.558Z,40.88
2024-01-11T18:28:43.157Z,42.90
2024-01-11T18:31:15.644Z,40.20
2024-01-11T18:33:46.446Z,48.78
2024-01-11T18:36:18.925Z,39.70
2024-01-11T18:38:47.502Z,38.42
2024-01-11T18:41:16.046Z,52.70
2024-01-11T18:43:51.230Z,46.40
2024-01-11T18:46:21.267Z,42.03
2024-01-11T18:48:56.295Z,39.47
2024-01-11T18:51:26.076Z,44.28
2024-01-11T18:53:54.738Z,42.88
2024-01-11T18:56:23.458Z,44.72
2024-01-11T18:58:51.864Z,33.95
2024-01-11T19:01:20.302Z,43.95
2024-01-11T19:03:48.733Z,44.70
2024-01-11T19:06:17.304Z,45.13
2024-01-11T19:08:47.114Z,40.90
2024-01-11T19:11:17.644Z,41.53
2024-01-11T19:13:46.671Z,38.65
2024-01-11T19:16:15.077Z,46.03
2024-01-11T19:18:43.543Z,45.65
2024-01-11T19:21:12.006Z,45.17
2024-01-11T19:23:40.737Z,48.10
2024-01-11T19:26:10.596Z,38.05
2024-01-11T19:28:38.958Z,43.38
2024-01-11T19:31:07.692Z,40.88
2024-01-11T19:33:36.261Z,36.33
2024-01-11T19:36:05.450Z,42.80
2024-01-11T19:38:35.775Z,38.22
2024-01-11T19:41:04.525Z,36.80
2024-01-11T19:43:36.452Z,40.83
2024-01-11T19:46:04.797Z,36.80
2024-01-11T19:48:33.372Z,44.42
2024-01-11T19:51:04.231Z,34.05
2024-01-11T19:53:32.970Z,40.33
2024-01-11T19:56:01.382Z,35.55
2024-01-11T19:58:29.720Z,40.53
2024-01-11T20:01:00.185Z,37.80
2024-01-11T20:03:28.586Z,36.25
2024-01-11T20:05:57.119Z,39.45
2024-01-11T20:08:25.855Z,37.42
2024-01-11T20:10:54.660Z,33.17
2024-01-11T20:13:23.125Z,32.25
2024-01-11T20:15:51.686Z,32.25
2024-01-11T20:18:23.484Z,35.17
2024-01-11T20:20:53.711Z,35.17
2024-01-11T20:23:22.340Z,32.75
2024-01-11T20:25:51.261Z,33.45
2024-01-11T20:28:19.637Z,29.02
2024-01-11T20:30:48.558Z,35.60
2024-01-11T20:33:17.295Z,31.35
2024-01-11T20:35:47.315Z,27.10
2024-01-11T20:38:15.819Z,31.77
2024-01-11T20:40:44.268Z,41.78
2024-01-11T20:43:14.197Z,38.85
2024-01-11T20:45:42.696Z,30.90
2024-01-11T20:48:11.355Z,30.17
2024-01-11T20:50:39.911Z,28.42
2024-01-11T20:53:09.820Z,25.50
2024-01-11T20:55:38.261Z,33.38
2024-01-11T20:58:06.749Z,25.77
2024-01-11T21:00:35.238Z,32.05
2024-01-11T21:03:03.764Z,27.23
2024-01-11T21:05:32.791Z,30.33
2024-01-11T21:08:03.161Z,33.25
2024-01-11T21:10:36.819Z,32.70
2024-01-11T21:13:05.241Z,29.45
2024-01-11T21:15:33.660Z,32.25
2024-01-11T21:18:02.326Z,31.02
2024-01-11T21:20:31.125Z,31.95
2024-01-11T21:22:59.742Z,37.03
2024-01-11T21:25:28.107Z,30.00
2024-01-11T21:27:57.919Z,31.90
2024-01-11T21:30:26.360Z,32.45
2024-01-11T21:32:54.905Z,29.60
2024-01-11T21:35:23.392Z,27.27
2024-01-11T21:37:51.805Z,28.08
2024-01-11T21:40:20.525Z,28.77
2024-01-11T21:42:48.984Z,31.63
2024-01-11T21:45:18.782Z,31.10
2024-01-11T21:47:49.255Z,31.85
2024-01-11T21:50:18.852Z,35.88
2024-01-11T21:52:48.176Z,37.97
2024-01-11T21:55:16.625Z,34.08
2024-01-11T21:57:45.036Z,35.40
2024-01-11T22:00:14.393Z,27.83
2024-01-11T22:02:44.391Z,35.67
2024-01-11T22:05:12.880Z,31.95
2024-01-11T22:07:41.240Z,30.75
2024-01-11T22:10:10.437Z,28.30
2024-01-11T22:12:38.947Z,30.35
2024-01-11T22:15:09.165Z,29.63
2024-01-11T22:17:38.014Z,31.55
2024-01-11T22:20:08.737Z,31.25
2024-01-11T22:22:37.335Z,28.25
2024-01-11T22:25:05.880Z,31.52
2024-01-11T22:27:34.657Z,28.50
2024-01-11T22:30:03.983Z,28.08
2024-01-11T22:32:32.595Z,25.75
2024-01-11T22:35:01.050Z,25.63
2024-01-11T22:37:30.870Z,27.75
2024-01-11T22:39:59.210Z,28.42
2024-01-11T22:42:27.588Z,29.42
2024-01-11T22:44:56.161Z,28.20
2024-01-11T22:47:25.670Z,32.65
2024-01-11T22:49:54.160Z,26.50
2024-01-11T22:52:22.550Z,23.13
2024-01-11T22:54:52.363Z,25.35
2024-01-11T22:57:20.739Z,28.58
2024-01-11T22:59:49.832Z,29.98
2024-01-11T23:02:18.871Z,30.33
2024-01-11T23:04:47.365Z,20.27
2024-01-11T23:07:15.715Z,25.00
2024-01-11T23:09:44.130Z,21.80
2024-01-11T23:12:13.906Z,30.77
2024-01-11T23:14:42.292Z,21.95
2024-01-11T23:17:10.678Z,24.17
2024-01-11T23:19:39.090Z,25.42
2024-01-11T23:22:07.456Z,30.30
2024-01-11T23:24:35.947Z,25.40
2024-01-11T23:27:06.991Z,28.52
2024-01-11T23:29:37.329Z,25.92
2024-01-11T23:32:06.064Z,21.70
2024-01-11T23:34:34.577Z,21.70
2024-01-11T23:37:02.932Z,22.92
2024-01-11T23:39:31.289Z,19.85
2024-01-11T23:41:59.684Z,21.40
2024-01-11T23:44:28.073Z,23.42
2024-01-11T23:46:57.997Z,23.05
2024-01-11T23:49:26.536Z,26.67
2024-01-11T23:51:54.992Z,21.90
2024-01-11T23:54:23.377Z,17.88
2024-01-11T23:56:51.874Z,20.85
2024-01-11T23:59:20.478Z,25.20
